Time;durP1;ratioP1;P1;durP2;ratioP2;P2;SDS_P1;SDS_P2;PMS_P1;PMS_P2;Temp;Humidity;BMP_temperature;BMP_pressure;BME280_temperature;BME280_humidity;BME280_pressure;Samples;Min_cycle;Max_cycle;Signal;HPM_P1;HPM_P2
2022/12/16 00:00:49;;;;;;;5.20;1.83;;;2.10;99.90;;;;;;5037145;28;20854;-84
2022/12/16 00:03:17;;;;;;;3.33;1.53;;;2.10;99.90;;;;;;5056102;28;20286;-80
2022/12/16 00:05:44;;;;;;;2.37;1.57;;;2.10;99.90;;;;;;5055898;28;20614;-84
2022/12/16 00:08:11;;;;;;;5.93;1.93;;;2.10;99.90;;;;;;5054890;28;20206;-80
2022/12/16 00:13:34;;;;;;;8.47;1.60;;;2.00;99.90;;;;;;5156825;27;20690;-77
2022/12/16 00:16:05;;;;;;;2.30;1.53;;;2.00;99.90;;;;;;5150836;27;20654;-75
2022/12/16 00:18:32;;;;;;;4.97;2.13;;;2.00;99.90;;;;;;5151070;27;20191;-77
2022/12/16 00:20:58;;;;;;;3.80;1.53;;;1.90;99.90;;;;;;5149416;27;20557;-79
2022/12/16 00:23:25;;;;;;;4.97;1.60;;;1.90;99.90;;;;;;5136725;27;20218;-76
2022/12/16 00:25:52;;;;;;;3.87;1.47;;;1.90;99.90;;;;;;5114490;27;20320;-78
2022/12/16 00:28:21;;;;;;;7.73;2.03;;;1.80;99.90;;;;;;5109804;27;20284;-80
2022/12/16 00:30:51;;;;;;;2.43;1.40;;;1.80;99.90;;;;;;5110316;28;20734;-85
2022/12/16 00:33:19;;;;;;;3.57;1.30;;;1.80;99.90;;;;;;5110089;27;20219;-79
2022/12/16 00:35:47;;;;;;;5.00;1.33;;;1.70;99.90;;;;;;5108841;28;20207;-83
2022/12/16 00:38:15;;;;;;;4.07;1.53;;;1.70;99.90;;;;;;5110197;28;20283;-83
2022/12/16 00:40:42;;;;;;;5.07;1.40;;;1.70;99.90;;;;;;5110738;27;20206;-84
2022/12/16 00:43:09;;;;;;;2.40;1.83;;;1.70;99.90;;;;;;5129506;28;20196;-79
2022/12/16 00:45:37;;;;;;;4.47;1.60;;;1.70;99.90;;;;;;5130469;28;20284;-77
2022/12/16 00:48:07;;;;;;;4.10;1.50;;;1.60;99.90;;;;;;5130870;28;20199;-77
2022/12/16 00:50:34;;;;;;;4.00;1.57;;;1.70;99.90;;;;;;5128653;27;20227;-82
2022/12/16 00:53:00;;;;;;;6.13;1.93;;;1.70;99.90;;;;;;5125113;27;20517;-80
2022/12/16 00:55:28;;;;;;;5.73;1.57;;;1.60;99.90;;;;;;5109523;28;20585;-82
2022/12/16 00:57:55;;;;;;;5.63;1.60;;;1.60;99.90;;;;;;5109184;27;20192;-83
2022/12/16 01:00:22;;;;;;;7.23;1.80;;;1.60;99.90;;;;;;5109552;28;20515;-78
2022/12/16 01:02:51;;;;;;;6.23;1.67;;;1.50;99.90;;;;;;5109059;27;20651;-84
2022/12/16 01:05:25;;;;;;;4.80;1.73;;;1.50;99.90;;;;;;5109301;27;20621;-82
2022/12/16 01:07:52;;;;;;;5.83;2.13;;;1.50;99.90;;;;;;5109386;28;20230;-79
2022/12/16 01:10:19;;;;;;;4.70;1.60;;;1.50;99.90;;;;;;5108382;28;20200;-80
2022/12/16 01:12:46;;;;;;;3.97;1.87;;;1.40;99.90;;;;;;5102929;28;20238;-80
2022/12/16 01:15:13;;;;;;;4.80;1.67;;;1.40;99.90;;;;;;5109111;28;20204;-80
2022/12/16 01:17:41;;;;;;;7.57;2.40;;;1.30;99.90;;;;;;5109329;28;20246;-80
2022/12/16 01:20:09;;;;;;;4.90;1.70;;;1.20;99.90;;;;;;5109133;28;20215;-77
2022/12/16 01:22:37;;;;;;;3.07;1.40;;;1.20;99.90;;;;;;5092666;28;20221;-77
2022/12/16 01:25:05;;;;;;;8.33;2.03;;;1.20;99.90;;;;;;5073318;28;20360;-77
2022/12/16 01:27:32;;;;;;;8.90;2.23;;;1.20;99.90;;;;;;5073916;28;20296;-77
2022/12/16 01:29:59;;;;;;;7.13;1.63;;;1.20;99.90;;;;;;5074591;28;20287;-77
2022/12/16 01:32:26;;;;;;;5.97;2.17;;;1.10;99.90;;;;;;5074055;28;20217;-77
2022/12/16 01:34:54;;;;;;;3.60;1.50;;;1.10;99.90;;;;;;5074525;28;20212;-80
2022/12/16 01:37:21;;;;;;;4.87;1.77;;;1.10;99.90;;;;;;5074339;28;20201;-79
2022/12/16 01:39:50;;;;;;;6.43;1.63;;;1.10;99.90;;;;;;5073724;28;20213;-78
2022/12/16 01:42:20;;;;;;;5.40;1.60;;;1.10;99.90;;;;;;5074499;28;20197;-79
2022/12/16 01:44:49;;;;;;;8.90;1.97;;;1.10;99.90;;;;;;5074704;28;20485;-79
2022/12/16 01:47:18;;;;;;;4.57;1.60;;;1.00;99.90;;;;;;5074477;28;20203;-78
2022/12/16 01:49:49;;;;;;;7.27;1.60;;;1.00;99.90;;;;;;5074292;28;20259;-78
2022/12/16 01:52:21;;;;;;;8.93;2.40;;;1.00;99.90;;;;;;5073650;28;20657;-79
2022/12/16 01:54:56;;;;;;;6.67;1.93;;;1.00;99.90;;;;;;5074154;28;20509;-77
2022/12/16 01:57:30;;;;;;;6.03;1.63;;;0.90;99.90;;;;;;5074468;28;20193;-79
2022/12/16 01:59:57;;;;;;;8.23;1.93;;;0.90;99.90;;;;;;5073686;28;20280;-79
2022/12/16 02:02:24;;;;;;;6.37;2.23;;;1.00;99.90;;;;;;5073916;28;20832;-78
2022/12/16 02:07:36;;;;;;;6.33;1.83;;;0.90;99.90;;;;;;5072957;28;20196;-78
2022/12/16 02:10:05;;;;;;;7.77;1.90;;;0.90;99.90;;;;;;5074004;28;20212;-79
2022/12/16 02:12:42;;;;;;;5.80;1.70;;;0.90;99.90;;;;;;5073338;28;20618;-77
2022/12/16 02:15:30;;;;;;;6.57;1.90;;;0.90;99.90;;;;;;5073538;28;20247;-77
2022/12/16 02:18:05;;;;;;;4.80;1.57;;;0.90;99.90;;;;;;5074128;28;20217;-79
2022/12/16 02:21:02;;;;;;;9.83;2.00;;;0.80;99.90;;;;;;5073386;28;20201;-80
2022/12/16 02:23:51;;;;;;;5.83;1.80;;;0.80;99.90;;;;;;5073259;28;20304;-78
2022/12/16 02:26:48;;;;;;;5.23;1.80;;;0.80;99.90;;;;;;5070238;28;20209;-77
2022/12/16 02:29:37;;;;;;;3.60;1.50;;;0.70;99.90;;;;;;5069962;28;20215;-77
2022/12/16 02:32:11;;;;;;;5.70;1.60;;;0.70;99.90;;;;;;5072623;28;20838;-78
2022/12/16 02:34:50;;;;;;;6.03;1.80;;;0.70;99.90;;;;;;5085484;28;20799;-80
2022/12/16 02:37:31;;;;;;;4.87;1.70;;;0.70;99.90;;;;;;5093595;28;20570;-79
2022/12/16 02:40:01;;;;;;;2.27;1.57;;;0.60;99.90;;;;;;5094359;28;20188;-78
2022/12/16 02:42:31;;;;;;;5.27;2.43;;;0.60;99.90;;;;;;5072874;28;20198;-78
2022/12/16 02:45:02;;;;;;;3.03;1.43;;;0.60;99.90;;;;;;5073383;28;20586;-79
2022/12/16 02:47:32;;;;;;;3.13;1.60;;;0.50;99.90;;;;;;5073507;28;20199;-78
2022/12/16 02:50:00;;;;;;;3.23;1.60;;;0.50;99.90;;;;;;5072694;28;20595;-78
2022/12/16 02:52:30;;;;;;;4.13;1.20;;;0.40;99.90;;;;;;5072954;28;20224;-78
2022/12/16 02:55:00;;;;;;;1.87;1.40;;;0.40;99.90;;;;;;5072748;28;20529;-79
2022/12/16 02:57:45;;;;;;;3.27;1.20;;;0.30;99.90;;;;;;5072101;28;20509;-79
2022/12/16 03:00:15;;;;;;;3.60;1.20;;;0.30;99.90;;;;;;5073006;28;20192;-78
2022/12/16 03:02:53;;;;;;;4.33;1.40;;;0.20;99.90;;;;;;5072151;28;20288;-78
2022/12/16 03:05:24;;;;;;;7.90;1.77;;;0.20;99.90;;;;;;5072504;28;20217;-77
2022/12/16 03:07:54;;;;;;;3.73;1.60;;;0.10;99.90;;;;;;5072597;28;20216;-77
2022/12/16 03:10:25;;;;;;;3.10;1.40;;;0.10;99.90;;;;;;5071772;28;20209;-78
2022/12/16 03:12:54;;;;;;;3.67;1.63;;;0.00;99.90;;;;;;5072761;28;20229;-77
2022/12/16 03:15:24;;;;;;;3.13;1.60;;;0.00;99.90;;;;;;5072423;28;20201;-77
2022/12/16 03:17:54;;;;;;;2.57;1.60;;;0.00;99.90;;;;;;5071642;28;20201;-77
2022/12/16 03:20:27;;;;;;;3.00;1.53;;;0.00;99.90;;;;;;5072291;28;20193;-79
2022/12/16 03:22:59;;;;;;;3.97;1.47;;;-0.10;99.90;;;;;;5072476;28;20648;-78
2022/12/16 03:25:28;;;;;;;2.57;1.67;;;-0.10;99.90;;;;;;5071587;28;20208;-80
2022/12/16 03:28:01;;;;;;;2.33;1.40;;;-0.20;99.90;;;;;;5072395;28;20201;-78
2022/12/16 03:30:34;;;;;;;2.23;1.43;;;-0.20;99.90;;;;;;5071740;28;20687;-77
2022/12/16 03:33:06;;;;;;;2.63;1.30;;;-0.30;99.90;;;;;;5072750;28;20570;-78
2022/12/16 03:35:37;;;;;;;2.40;1.33;;;-0.30;99.90;;;;;;5072232;28;20200;-77
2022/12/16 03:38:07;;;;;;;6.53;1.63;;;-0.30;99.90;;;;;;5071513;28;20516;-78
2022/12/16 03:40:35;;;;;;;4.40;1.80;;;-0.30;99.90;;;;;;5071810;28;20224;-77
2022/12/16 03:43:04;;;;;;;2.97;1.70;;;-0.40;99.90;;;;;;5072471;28;20216;-77
2022/12/16 03:45:37;;;;;;;4.73;2.00;;;-0.40;99.90;;;;;;5071095;28;20644;-79
2022/12/16 03:48:08;;;;;;;2.27;1.50;;;-0.50;99.90;;;;;;5072054;28;20568;-77
2022/12/16 03:50:35;;;;;;;5.03;1.97;;;-0.50;99.90;;;;;;5071884;28;20201;-77
2022/12/16 03:53:03;;;;;;;3.30;1.80;;;-0.50;99.90;;;;;;5071165;28;20624;-79
2022/12/16 03:55:30;;;;;;;2.63;1.63;;;-0.60;99.90;;;;;;5072120;28;20209;-77
2022/12/16 03:57:57;;;;;;;3.00;1.80;;;-0.60;99.90;;;;;;5071916;28;20284;-76
2022/12/16 04:00:24;;;;;;;4.80;1.70;;;-0.60;99.90;;;;;;5071467;28;20197;-79
2022/12/16 04:02:51;;;;;;;4.77;1.73;;;-0.60;99.90;;;;;;5071365;28;20612;-77
2022/12/16 04:05:20;;;;;;;4.43;1.60;;;-0.60;99.90;;;;;;5072181;28;20538;-78
2022/12/16 04:07:47;;;;;;;4.73;1.87;;;-0.60;99.90;;;;;;5070766;28;20333;-78
2022/12/16 04:10:13;;;;;;;2.17;1.60;;;-0.70;99.90;;;;;;5071891;28;20232;-77
2022/12/16 04:27:23;;;;;;;2.93;1.93;;;-0.80;99.90;;;;;;5071617;28;20281;-79
2022/12/16 04:29:21;;;;;;;4.77;2.03;;;-0.80;99.90;;;;;;5070871;28;20605;-78
2022/12/16 04:31:48;;;;;;;4.20;1.97;;;-0.80;99.90;;;;;;5071265;28;20211;-78
2022/12/16 04:34:28;;;;;;;2.97;2.13;;;-0.80;99.90;;;;;;5070804;28;20519;-78
